sensor_id;sensor_type;location;lat;lon;timestamp;P1;durP1;ratioP1;P2;durP2;ratioP2
73456;SDS011;61691;53.072;6.582;2023-04-19T00:01:35;19.60;;;6.78;;
73456;SDS011;61691;53.072;6.582;2023-04-19T00:04:02;19.73;;;6.25;;
73456;SDS011;61691;53.072;6.582;2023-04-19T00:06:29;17.63;;;6.32;;
73456;SDS011;61691;53.072;6.582;2023-04-19T00:08:57;18.08;;;6.63;;
73456;SDS011;61691;53.072;6.582;2023-04-19T00:11:23;18.88;;;6.47;;
73456;SDS011;61691;53.072;6.582;2023-04-19T00:13:51;17.33;;;6.63;;
73456;SDS011;61691;53.072;6.582;2023-04-19T00:16:17;18.27;;;6.50;;
73456;SDS011;61691;53.072;6.582;2023-04-19T00:18:44;18.45;;;6.38;;
73456;SDS011;61691;53.072;6.582;2023-04-19T00:21:12;18.10;;;5.65;;
73456;SDS011;61691;53.072;6.582;2023-04-19T00:23:38;17.85;;;5.78;;
73456;SDS011;61691;53.072;6.582;2023-04-19T00:26:05;18.45;;;6.35;;
73456;SDS011;61691;53.072;6.582;2023-04-19T00:28:32;16.50;;;5.85;;
73456;SDS011;61691;53.072;6.582;2023-04-19T00:30:59;17.00;;;6.25;;
73456;SDS011;61691;53.072;6.582;2023-04-19T00:33:26;17.50;;;6.10;;
73456;SDS011;61691;53.072;6.582;2023-04-19T00:35:52;17.77;;;6.05;;
73456;SDS011;61691;53.072;6.582;2023-04-19T00:38:19;18.30;;;6.78;;
73456;SDS011;61691;53.072;6.582;2023-04-19T00:40:46;18.15;;;6.18;;
73456;SDS011;61691;53.072;6.582;2023-04-19T00:43:16;18.58;;;6.90;;
73456;SDS011;61691;53.072;6.582;2023-04-19T00:45:44;18.27;;;6.55;;
73456;SDS011;61691;53.072;6.582;2023-04-19T00:48:12;17.52;;;6.22;;
73456;SDS011;61691;53.072;6.582;2023-04-19T00:50:40;18.45;;;6.78;;
73456;SDS011;61691;53.072;6.582;2023-04-19T00:53:08;19.73;;;7.25;;
73456;SDS011;61691;53.072;6.582;2023-04-19T00:55:37;19.55;;;7.65;;
73456;SDS011;61691;53.072;6.582;2023-04-19T00:58:05;18.88;;;6.93;;
73456;SDS011;61691;53.072;6.582;2023-04-19T01:00:33;18.17;;;6.82;;
73456;SDS011;61691;53.072;6.582;2023-04-19T01:03:01;19.17;;;6.93;;
73456;SDS011;61691;53.072;6.582;2023-04-19T01:05:28;19.08;;;6.90;;
73456;SDS011;61691;53.072;6.582;2023-04-19T01:07:56;18.23;;;6.22;;
73456;SDS011;61691;53.072;6.582;2023-04-19T01:10:22;19.00;;;6.85;;
73456;SDS011;61691;53.072;6.582;2023-04-19T01:12:49;18.90;;;6.60;;
73456;SDS011;61691;53.072;6.582;2023-04-19T01:15:16;19.15;;;6.82;;
73456;SDS011;61691;53.072;6.582;2023-04-19T01:17:42;19.75;;;7.22;;
73456;SDS011;61691;53.072;6.582;2023-04-19T01:20:09;18.90;;;6.70;;
73456;SDS011;61691;53.072;6.582;2023-04-19T01:22:36;17.67;;;6.72;;
73456;SDS011;61691;53.072;6.582;2023-04-19T01:25:03;18.88;;;7.32;;
73456;SDS011;61691;53.072;6.582;2023-04-19T01:27:30;19.77;;;7.20;;
73456;SDS011;61691;53.072;6.582;2023-04-19T01:29:57;18.90;;;6.95;;
73456;SDS011;61691;53.072;6.582;2023-04-19T01:32:24;19.85;;;7.78;;
73456;SDS011;61691;53.072;6.582;2023-04-19T01:34:53;20.40;;;7.33;;
73456;SDS011;61691;53.072;6.582;2023-04-19T01:37:20;18.67;;;7.40;;
73456;SDS011;61691;53.072;6.582;2023-04-19T01:39:47;22.00;;;7.43;;
73456;SDS011;61691;53.072;6.582;2023-04-19T01:42:13;20.77;;;7.80;;
73456;SDS011;61691;53.072;6.582;2023-04-19T01:44:40;21.50;;;8.50;;
73456;SDS011;61691;53.072;6.582;2023-04-19T01:47:07;21.27;;;8.18;;
73456;SDS011;61691;53.072;6.582;2023-04-19T01:49:34;21.88;;;7.80;;
73456;SDS011;61691;53.072;6.582;2023-04-19T01:52:01;19.48;;;7.57;;
73456;SDS011;61691;53.072;6.582;2023-04-19T01:54:27;19.90;;;8.38;;
73456;SDS011;61691;53.072;6.582;2023-04-19T01:56:54;20.83;;;7.93;;
73456;SDS011;61691;53.072;6.582;2023-04-19T01:59:21;20.63;;;8.48;;
73456;SDS011;61691;53.072;6.582;2023-04-19T02:01:47;20.77;;;8.30;;
73456;SDS011;61691;53.072;6.582;2023-04-19T02:04:14;20.20;;;8.38;;
73456;SDS011;61691;53.072;6.582;2023-04-19T02:06:41;20.60;;;8.05;;
73456;SDS011;61691;53.072;6.582;2023-04-19T02:09:11;21.48;;;8.63;;
73456;SDS011;61691;53.072;6.582;2023-04-19T02:11:37;21.48;;;8.60;;
73456;SDS011;61691;53.072;6.582;2023-04-19T02:14:04;20.40;;;8.52;;
73456;SDS011;61691;53.072;6.582;2023-04-19T02:16:31;20.75;;;8.88;;
73456;SDS011;61691;53.072;6.582;2023-04-19T02:19:01;20.23;;;8.57;;
73456;SDS011;61691;53.072;6.582;2023-04-19T02:21:27;22.17;;;7.43;;
73456;SDS011;61691;53.072;6.582;2023-04-19T02:23:54;20.30;;;8.45;;
73456;SDS011;61691;53.072;6.582;2023-04-19T02:26:21;21.52;;;8.25;;
73456;SDS011;61691;53.072;6.582;2023-04-19T02:28:50;19.58;;;7.82;;
73456;SDS011;61691;53.072;6.582;2023-04-19T02:31:18;20.70;;;8.05;;
73456;SDS011;61691;53.072;6.582;2023-04-19T02:33:45;19.27;;;7.93;;
73456;SDS011;61691;53.072;6.582;2023-04-19T02:36:12;21.13;;;8.50;;
73456;SDS011;61691;53.072;6.582;2023-04-19T02:38:38;19.85;;;7.85;;
73456;SDS011;61691;53.072;6.582;2023-04-19T02:41:06;20.67;;;8.00;;
73456;SDS011;61691;53.072;6.582;2023-04-19T02:43:32;19.35;;;7.20;;
73456;SDS011;61691;53.072;6.582;2023-04-19T02:45:59;18.08;;;6.97;;
73456;SDS011;61691;53.072;6.582;2023-04-19T02:48:26;20.40;;;7.22;;
73456;SDS011;61691;53.072;6.582;2023-04-19T02:50:53;20.80;;;7.25;;
73456;SDS011;61691;53.072;6.582;2023-04-19T02:53:19;18.45;;;6.32;;
73456;SDS011;61691;53.072;6.582;2023-04-19T02:55:46;22.17;;;7.18;;
73456;SDS011;61691;53.072;6.582;2023-04-19T02:58:13;21.60;;;6.97;;
73456;SDS011;61691;53.072;6.582;2023-04-19T03:00:40;18.52;;;7.03;;
73456;SDS011;61691;53.072;6.582;2023-04-19T03:03:06;18.67;;;5.90;;
73456;SDS011;61691;53.072;6.582;2023-04-19T03:05:35;18.20;;;6.30;;
73456;SDS011;61691;53.072;6.582;2023-04-19T03:08:01;18.05;;;6.43;;
73456;SDS011;61691;53.072;6.582;2023-04-19T03:10:28;17.73;;;6.28;;
73456;SDS011;61691;53.072;6.582;2023-04-19T03:12:55;17.27;;;6.13;;
73456;SDS011;61691;53.072;6.582;2023-04-19T03:15:21;19.17;;;6.47;;
73456;SDS011;61691;53.072;6.582;2023-04-19T03:17:48;19.90;;;6.93;;
73456;SDS011;61691;53.072;6.582;2023-04-19T03:20:15;19.08;;;6.25;;
73456;SDS011;61691;53.072;6.582;2023-04-19T03:22:42;18.67;;;6.45;;
73456;SDS011;61691;53.072;6.582;2023-04-19T03:25:09;18.13;;;5.72;;
73456;SDS011;61691;53.072;6.582;2023-04-19T03:27:38;18.02;;;5.93;;
73456;SDS011;61691;53.072;6.582;2023-04-19T03:30:05;18.63;;;5.60;;
73456;SDS011;61691;53.072;6.582;2023-04-19T03:32:32;17.63;;;6.05;;
73456;SDS011;61691;53.072;6.582;2023-04-19T03:34:59;18.75;;;6.13;;
73456;SDS011;61691;53.072;6.582;2023-04-19T03:37:25;18.58;;;5.82;;
73456;SDS011;61691;53.072;6.582;2023-04-19T03:39:52;18.75;;;5.97;;
73456;SDS011;61691;53.072;6.582;2023-04-19T03:42:19;18.85;;;5.70;;
73456;SDS011;61691;53.072;6.582;2023-04-19T03:44:45;15.70;;;5.15;;
73456;SDS011;61691;53.072;6.582;2023-04-19T03:47:12;18.33;;;5.60;;
73456;SDS011;61691;53.072;6.582;2023-04-19T03:49:39;18.25;;;6.07;;
73456;SDS011;61691;53.072;6.582;2023-04-19T03:52:05;17.85;;;6.10;;
73456;SDS011;61691;53.072;6.582;2023-04-19T03:54:32;18.10;;;6.40;;
73456;SDS011;61691;53.072;6.582;2023-04-19T03:56:59;18.40;;;5.70;;
73456;SDS011;61691;53.072;6.582;2023-04-19T03:59:25;18.42;;;5.40;;
73456;SDS011;61691;53.072;6.582;2023-04-19T04:01:52;18.25;;;5.63;;
73456;SDS011;61691;53.072;6.582;2023-04-19T04:04:19;20.52;;;5.85;;
73456;SDS011;61691;53.072;6.582;2023-04-19T04:06:46;15.68;;;5.15;;
73456;SDS011;61691;53.072;6.582;2023-04-19T04:09:13;19.45;;;5.43;;
73456;SDS011;61691;53.072;6.582;2023-04-19T04:11:40;17.02;;;5.13;;
73456;SDS011;61691;53.072;6.582;2023-04-19T04:14:06;17.17;;;5.70;;
73456;SDS011;61691;53.072;6.582;2023-04-19T04:16:33;18.35;;;4.95;;
73456;SDS011;61691;53.072;6.582;2023-04-19T04:19:00;19.40;;;5.80;;
73456;SDS011;61691;53.072;6.582;2023-04-19T04:21:27;16.95;;;5.25;;
73456;SDS011;61691;53.072;6.582;2023-04-19T04:23:53;16.95;;;5.55;;
73456;SDS011;61691;53.072;6.582;2023-04-19T04:26:20;17.38;;;5.57;;
73456;SDS011;61691;53.072;6.582;2023-04-19T04:28:47;16.00;;;5.10;;
73456;SDS011;61691;53.072;6.582;2023-04-19T04:31:13;17.85;;;5.55;;
73456;SDS011;61691;53.072;6.582;2023-04-19T04:33:43;18.53;;;5.87;;
73456;SDS011;61691;53.072;6.582;2023-04-19T04:36:11;18.48;;;6.63;;
73456;SDS011;61691;53.072;6.582;2023-04-19T04:38:38;16.85;;;5.15;;
73456;SDS011;61691;53.072;6.582;2023-04-19T04:41:04;17.80;;;5.63;;
73456;SDS011;61691;53.072;6.582;2023-04-19T04:43:31;16.40;;;4.93;;
73456;SDS011;61691;53.072;6.582;2023-04-19T04:46:00;16.52;;;5.15;;
73456;SDS011;61691;53.072;6.582;2023-04-19T04:48:27;15.35;;;5.00;;
73456;SDS011;61691;53.072;6.582;2023-04-19T04:50:53;18.13;;;4.97;;
73456;SDS011;61691;53.072;6.582;2023-04-19T04:53:20;18.38;;;5.32;;
73456;SDS011;61691;53.072;6.582;2023-04-19T04:55:47;17.42;;;5.53;;
73456;SDS011;61691;53.072;6.582;2023-04-19T04:58:14;15.70;;;4.75;;
73456;SDS011;61691;53.072;6.582;2023-04-19T05:00:40;16.02;;;4.65;;
73456;SDS011;61691;53.072;6.582;2023-04-19T05:03:07;16.73;;;5.68;;
73456;SDS011;61691;53.072;6.582;2023-04-19T05:05:34;16.58;;;5.13;;
73456;SDS011;61691;53.072;6.582;2023-04-19T05:08:01;16.77;;;4.53;;
73456;SDS011;61691;53.072;6.582;2023-04-19T05:10:27;17.77;;;5.03;;
73456;SDS011;61691;53.072;6.582;2023-04-19T05:12:54;15.73;;;4.75;;
73456;SDS011;61691;53.072;6.582;2023-04-19T05:15:21;15.80;;;4.72;;
73456;SDS011;61691;53.072;6.582;2023-04-19T05:17:48;19.30;;;5.15;;
73456;SDS011;61691;53.072;6.582;2023-04-19T05:20:15;15.75;;;5.28;;
73456;SDS011;61691;53.072;6.582;2023-04-19T05:22:41;16.08;;;4.80;;
73456;SDS011;61691;53.072;6.582;2023-04-19T05:25:08;15.48;;;4.10;;
73456;SDS011;61691;53.072;6.582;2023-04-19T05:27:36;15.77;;;4.43;;
73456;SDS011;61691;53.072;6.582;2023-04-19T05:30:03;16.92;;;4.93;;
73456;SDS011;61691;53.072;6.582;2023-04-19T05:32:31;15.55;;;4.63;;
73456;SDS011;61691;53.072;6.582;2023-04-19T05:34:58;14.55;;;4.38;;
73456;SDS011;61691;53.072;6.582;2023-04-19T05:37:25;16.40;;;4.50;;
73456;SDS011;61691;53.072;6.582;2023-04-19T05:39:52;15.25;;;4.47;;
73456;SDS011;61691;53.072;6.582;2023-04-19T05:42:18;15.23;;;4.60;;
73456;SDS011;61691;53.072;6.582;2023-04-19T05:44:45;15.85;;;4.30;;
73456;SDS011;61691;53.072;6.582;2023-04-19T05:47:12;14.65;;;4.30;;
73456;SDS011;61691;53.072;6.582;2023-04-19T05:49:39;17.10;;;3.92;;
73456;SDS011;61691;53.072;6.582;2023-04-19T05:52:08;16.30;;;4.30;;
73456;SDS011;61691;53.072;6.582;2023-04-19T05:54:34;15.77;;;4.00;;
73456;SDS011;61691;53.072;6.582;2023-04-19T05:57:02;14.98;;;4.00;;
73456;SDS011;61691;53.072;6.582;2023-04-19T05:59:29;15.75;;;4.38;;
73456;SDS011;61691;53.072;6.582;2023-04-19T06:01:55;13.77;;;3.47;;
73456;SDS011;61691;53.072;6.582;2023-04-19T06:04:22;14.60;;;3.88;;
73456;SDS011;61691;53.072;6.582;2023-04-19T06:06:50;14.88;;;3.88;;
73456;SDS011;61691;53.072;6.582;2023-04-19T06:09:17;15.57;;;3.90;;
73456;SDS011;61691;53.072;6.582;2023-04-19T06:11:44;15.40;;;3.75;;
73456;SDS011;61691;53.072;6.582;2023-04-19T06:14:16;14.38;;;3.47;;
73456;SDS011;61691;53.072;6.582;2023-04-19T06:16:44;14.07;;;3.83;;
73456;SDS011;61691;53.072;6.582;2023-04-19T06:19:11;15.95;;;4.20;;
73456;SDS011;61691;53.072;6.582;2023-04-19T06:21:38;14.43;;;3.80;;
73456;SDS011;61691;53.072;6.582;2023-04-19T06:24:05;13.57;;;3.35;;
73456;SDS011;61691;53.072;6.582;2023-04-19T06:26:32;16.33;;;3.53;;
73456;SDS011;61691;53.072;6.582;2023-04-19T06:28:59;16.45;;;3.65;;
73456;SDS011;61691;53.072;6.582;2023-04-19T06:31:26;13.73;;;3.30;;
73456;SDS011;61691;53.072;6.582;2023-04-19T06:33:53;13.45;;;3.20;;
73456;SDS011;61691;53.072;6.582;2023-04-19T06:36:20;13.15;;;3.50;;
73456;SDS011;61691;53.072;6.582;2023-04-19T06:38:46;13.15;;;3.20;;
73456;SDS011;61691;53.072;6.582;2023-04-19T06:41:15;15.35;;;3.42;;
73456;SDS011;61691;53.072;6.582;2023-04-19T06:43:42;12.32;;;3.10;;
73456;SDS011;61691;53.072;6.582;2023-04-19T06:46:10;15.73;;;3.35;;
73456;SDS011;61691;53.072;6.582;2023-04-19T06:48:39;15.40;;;3.28;;
73456;SDS011;61691;53.072;6.582;2023-04-19T06:51:06;14.48;;;3.20;;
73456;SDS011;61691;53.072;6.582;2023-04-19T06:53:33;13.98;;;3.50;;
73456;SDS011;61691;53.072;6.582;2023-04-19T06:56:01;12.90;;;3.08;;
73456;SDS011;61691;53.072;6.582;2023-04-19T06:58:32;12.00;;;3.28;;
73456;SDS011;61691;53.072;6.582;2023-04-19T07:01:00;14.13;;;3.22;;
73456;SDS011;61691;53.072;6.582;2023-04-19T07:03:29;14.05;;;3.60;;
73456;SDS011;61691;53.072;6.582;2023-04-19T07:05:56;13.38;;;3.60;;
73456;SDS011;61691;53.072;6.582;2023-04-19T07:08:23;12.82;;;3.10;;
73456;SDS011;61691;53.072;6.582;2023-04-19T07:11:00;12.75;;;3.17;;
73456;SDS011;61691;53.072;6.582;2023-04-19T07:13:27;12.02;;;3.08;;
73456;SDS011;61691;53.072;6.582;2023-04-19T07:15:54;13.07;;;3.40;;
73456;SDS011;61691;53.072;6.582;2023-04-19T07:18:20;12.90;;;2.95;;
73456;SDS011;61691;53.072;6.582;2023-04-19T07:20:47;13.05;;;3.20;;
73456;SDS011;61691;53.072;6.582;2023-04-19T07:23:14;12.13;;;3.00;;
73456;SDS011;61691;53.072;6.582;2023-04-19T07:25:41;12.48;;;3.05;;
73456;SDS011;61691;53.072;6.582;2023-04-19T07:28:08;14.15;;;2.95;;
73456;SDS011;61691;53.072;6.582;2023-04-19T07:30:35;15.15;;;3.22;;
73456;SDS011;61691;53.072;6.582;2023-04-19T07:33:01;11.65;;;2.65;;
73456;SDS011;61691;53.072;6.582;2023-04-19T07:35:30;11.85;;;2.78;;
73456;SDS011;61691;53.072;6.582;2023-04-19T07:37:57;11.98;;;2.80;;
73456;SDS011;61691;53.072;6.582;2023-04-19T07:40:23;9.68;;;2.50;;
73456;SDS011;61691;53.072;6.582;2023-04-19T07:42:50;10.25;;;2.78;;
73456;SDS011;61691;53.072;6.582;2023-04-19T07:45:17;11.32;;;2.75;;
73456;SDS011;61691;53.072;6.582;2023-04-19T07:47:44;14.65;;;2.85;;
73456;SDS011;61691;53.072;6.582;2023-04-19T07:50:11;14.18;;;2.95;;
73456;SDS011;61691;53.072;6.582;2023-04-19T07:52:37;12.32;;;2.70;;
73456;SDS011;61691;53.072;6.582;2023-04-19T07:55:04;10.77;;;2.80;;
73456;SDS011;61691;53.072;6.582;2023-04-19T07:57:33;11.55;;;2.90;;
73456;SDS011;61691;53.072;6.582;2023-04-19T08:00:00;11.48;;;3.00;;
73456;SDS011;61691;53.072;6.582;2023-04-19T08:02:27;13.18;;;3.00;;
73456;SDS011;61691;53.072;6.582;2023-04-19T08:04:54;13.90;;;2.83;;
73456;SDS011;61691;53.072;6.582;2023-04-19T08:07:23;10.07;;;2.50;;
73456;SDS011;61691;53.072;6.582;2023-04-19T08:09:51;11.07;;;2.58;;
73456;SDS011;61691;53.072;6.582;2023-04-19T08:12:18;11.10;;;2.63;;
73456;SDS011;61691;53.072;6.582;2023-04-19T08:15:05;11.48;;;2.70;;
73456;SDS011;61691;53.072;6.582;2023-04-19T08:17:53;14.07;;;2.85;;
73456;SDS011;61691;53.072;6.582;2023-04-19T08:20:19;11.98;;;2.80;;
73456;SDS011;61691;53.072;6.582;2023-04-19T08:22:47;10.57;;;2.30;;
73456;SDS011;61691;53.072;6.582;2023-04-19T08:25:13;9.73;;;2.65;;
73456;SDS011;61691;53.072;6.582;2023-04-19T08:27:40;9.98;;;2.67;;
73456;SDS011;61691;53.072;6.582;2023-04-19T08:30:08;9.32;;;2.50;;
73456;SDS011;61691;53.072;6.582;2023-04-19T08:32:36;9.77;;;2.50;;
73456;SDS011;61691;53.072;6.582;2023-04-19T08:35:03;11.27;;;2.70;;
73456;SDS011;61691;53.072;6.582;2023-04-19T08:37:31;13.80;;;2.53;;
73456;SDS011;61691;53.072;6.582;2023-04-19T08:39:57;9.60;;;2.10;;
73456;SDS011;61691;53.072;6.582;2023-04-19T08:42:24;11.32;;;2.45;;
73456;SDS011;61691;53.072;6.582;2023-04-19T08:45:02;10.27;;;2.40;;
73456;SDS011;61691;53.072;6.582;2023-04-19T08:47:36;9.75;;;2.45;;
73456;SDS011;61691;53.072;6.582;2023-04-19T08:50:07;10.30;;;2.40;;
73456;SDS011;61691;53.072;6.582;2023-04-19T08:52:49;7.57;;;2.20;;
73456;SDS011;61691;53.072;6.582;2023-04-19T08:55:26;6.95;;;2.08;;
73456;SDS011;61691;53.072;6.582;2023-04-19T08:57:54;11.68;;;2.28;;
73456;SDS011;61691;53.072;6.582;2023-04-19T09:00:22;10.90;;;2.40;;
73456;SDS011;61691;53.072;6.582;2023-04-19T09:02:51;10.02;;;2.58;;
73456;SDS011;61691;53.072;6.582;2023-04-19T09:05:21;11.70;;;2.45;;
73456;SDS011;61691;53.072;6.582;2023-04-19T09:07:48;8.93;;;2.30;;
73456;SDS011;61691;53.072;6.582;2023-04-19T09:10:18;8.95;;;2.20;;
73456;SDS011;61691;53.072;6.582;2023-04-19T09:13:02;10.25;;;2.83;;
73456;SDS011;61691;53.072;6.582;2023-04-19T09:15:34;10.20;;;2.60;;
73456;SDS011;61691;53.072;6.582;2023-04-19T09:18:04;8.43;;;1.90;;
73456;SDS011;61691;53.072;6.582;2023-04-19T09:20:36;9.60;;;2.28;;
73456;SDS011;61691;53.072;6.582;2023-04-19T09:23:04;9.63;;;2.30;;
73456;SDS011;61691;53.072;6.582;2023-04-19T09:25:32;10.02;;;2.50;;
73456;SDS011;61691;53.072;6.582;2023-04-19T09:28:21;9.20;;;2.33;;
73456;SDS011;61691;53.072;6.582;2023-04-19T09:30:48;6.22;;;2.00;;
73456;SDS011;61691;53.072;6.582;2023-04-19T09:33:35;9.05;;;2.40;;
73456;SDS011;61691;53.072;6.582;2023-04-19T09:36:05;7.72;;;2.00;;
73456;SDS011;61691;53.072;6.582;2023-04-19T09:38:46;8.00;;;2.25;;
73456;SDS011;61691;53.072;6.582;2023-04-19T09:41:14;11.35;;;2.65;;
73456;SDS011;61691;53.072;6.582;2023-04-19T09:43:42;6.95;;;1.98;;
73456;SDS011;61691;53.072;6.582;2023-04-19T09:51:53;10.18;;;2.15;;
73456;SDS011;61691;53.072;6.582;2023-04-19T09:54:22;6.78;;;2.00;;
73456;SDS011;61691;53.072;6.582;2023-04-19T09:56:50;7.90;;;2.17;;
73456;SDS011;61691;53.072;6.582;2023-04-19T09:59:21;8.80;;;2.10;;
73456;SDS011;61691;53.072;6.582;2023-04-19T10:01:55;7.68;;;1.90;;
73456;SDS011;61691;53.072;6.582;2023-04-19T10:04:22;8.15;;;2.15;;
73456;SDS011;61691;53.072;6.582;2023-04-19T10:09:52;8.85;;;2.25;;
73456;SDS011;61691;53.072;6.582;2023-04-19T10:12:37;11.75;;;2.28;;
73456;SDS011;61691;53.072;6.582;2023-04-19T10:15:25;9.02;;;2.30;;
73456;SDS011;61691;53.072;6.582;2023-04-19T10:18:08;10.55;;;2.20;;
73456;SDS011;61691;53.072;6.582;2023-04-19T10:23:25;8.38;;;2.20;;
73456;SDS011;61691;53.072;6.582;2023-04-19T10:25:54;9.77;;;2.00;;
73456;SDS011;61691;53.072;6.582;2023-04-19T10:28:28;7.05;;;1.90;;
73456;SDS011;61691;53.072;6.582;2023-04-19T10:31:00;8.05;;;1.95;;
73456;SDS011;61691;53.072;6.582;2023-04-19T10:33:35;6.65;;;1.50;;
73456;SDS011;61691;53.072;6.582;2023-04-19T10:36:03;9.50;;;1.67;;
73456;SDS011;61691;53.072;6.582;2023-04-19T10:38:37;8.98;;;2.00;;
73456;SDS011;61691;53.072;6.582;2023-04-19T10:41:15;5.22;;;1.52;;
73456;SDS011;61691;53.072;6.582;2023-04-19T10:49:02;8.02;;;1.90;;
73456;SDS011;61691;53.072;6.582;2023-04-19T10:54:02;6.72;;;1.60;;
73456;SDS011;61691;53.072;6.582;2023-04-19T11:01:37;4.95;;;1.70;;
73456;SDS011;61691;53.072;6.582;2023-04-19T11:04:06;6.95;;;1.65;;
73456;SDS011;61691;53.072;6.582;2023-04-19T11:06:34;4.97;;;1.60;;
73456;SDS011;61691;53.072;6.582;2023-04-19T11:09:02;9.45;;;1.70;;
73456;SDS011;61691;53.072;6.582;2023-04-19T11:11:35;8.35;;;1.70;;
73456;SDS011;61691;53.072;6.582;2023-04-19T11:14:02;8.40;;;1.80;;
73456;SDS011;61691;53.072;6.582;2023-04-19T11:16:29;7.45;;;2.03;;
73456;SDS011;61691;53.072;6.582;2023-04-19T11:19:03;6.72;;;1.77;;
73456;SDS011;61691;53.072;6.582;2023-04-19T11:21:30;8.15;;;1.70;;
73456;SDS011;61691;53.072;6.582;2023-04-19T11:24:05;6.90;;;1.73;;
73456;SDS011;61691;53.072;6.582;2023-04-19T11:26:35;6.63;;;1.80;;
73456;SDS011;61691;53.072;6.582;2023-04-19T11:29:02;10.25;;;1.80;;
73456;SDS011;61691;53.072;6.582;2023-04-19T11:31:32;8.40;;;1.80;;
73456;SDS011;61691;53.072;6.582;2023-04-19T11:33:59;9.63;;;1.80;;
73456;SDS011;61691;53.072;6.582;2023-04-19T11:36:27;6.68;;;2.03;;
73456;SDS011;61691;53.072;6.582;2023-04-19T11:38:54;7.57;;;1.90;;
73456;SDS011;61691;53.072;6.582;2023-04-19T11:41:21;8.43;;;1.88;;
73456;SDS011;61691;53.072;6.582;2023-04-19T11:43:48;7.68;;;1.80;;
73456;SDS011;61691;53.072;6.582;2023-04-19T11:46:14;7.20;;;2.00;;
73456;SDS011;61691;53.072;6.582;2023-04-19T11:48:51;7.32;;;1.83;;
73456;SDS011;61691;53.072;6.582;2023-04-19T11:51:20;7.43;;;2.10;;
73456;SDS011;61691;53.072;6.582;2023-04-19T11:53:47;7.90;;;2.30;;
73456;SDS011;61691;53.072;6.582;2023-04-19T11:56:13;7.85;;;2.30;;
73456;SDS011;61691;53.072;6.582;2023-04-19T11:58:42;8.18;;;2.25;;
73456;SDS011;61691;53.072;6.582;2023-04-19T12:01:11;10.25;;;2.30;;
73456;SDS011;61691;53.072;6.582;2023-04-19T12:06:21;9.68;;;2.65;;
73456;SDS011;61691;53.072;6.582;2023-04-19T12:08:51;10.38;;;2.50;;
73456;SDS011;61691;53.072;6.582;2023-04-19T12:11:40;12.00;;;2.70;;
73456;SDS011;61691;53.072;6.582;2023-04-19T12:14:10;11.88;;;2.67;;
73456;SDS011;61691;53.072;6.582;2023-04-19T12:16:38;12.00;;;2.67;;
73456;SDS011;61691;53.072;6.582;2023-04-19T12:19:11;11.88;;;2.70;;
73456;SDS011;61691;53.072;6.582;2023-04-19T12:21:46;11.43;;;2.50;;
73456;SDS011;61691;53.072;6.582;2023-04-19T12:24:16;11.40;;;2.80;;
73456;SDS011;61691;53.072;6.582;2023-04-19T12:26:52;13.02;;;2.75;;
73456;SDS011;61691;53.072;6.582;2023-04-19T12:29:40;9.40;;;2.15;;
73456;SDS011;61691;53.072;6.582;2023-04-19T12:32:08;12.13;;;2.70;;
73456;SDS011;61691;53.072;6.582;2023-04-19T12:34:36;10.27;;;2.60;;
73456;SDS011;61691;53.072;6.582;2023-04-19T12:37:02;12.13;;;2.88;;
73456;SDS011;61691;53.072;6.582;2023-04-19T12:39:29;13.93;;;2.80;;
73456;SDS011;61691;53.072;6.582;2023-04-19T12:41:56;10.70;;;2.70;;
73456;SDS011;61691;53.072;6.582;2023-04-19T12:44:23;14.18;;;2.80;;
73456;SDS011;61691;53.072;6.582;2023-04-19T12:46:49;11.55;;;3.28;;
73456;SDS011;61691;53.072;6.582;2023-04-19T12:49:17;10.43;;;2.50;;
73456;SDS011;61691;53.072;6.582;2023-04-19T12:51:45;11.25;;;2.45;;
73456;SDS011;61691;53.072;6.582;2023-04-19T12:54:13;10.43;;;2.40;;
73456;SDS011;61691;53.072;6.582;2023-04-19T12:56:40;10.23;;;2.60;;
73456;SDS011;61691;53.072;6.582;2023-04-19T12:59:07;13.82;;;2.67;;
73456;SDS011;61691;53.072;6.582;2023-04-19T13:01:34;12.02;;;2.72;;
73456;SDS011;61691;53.072;6.582;2023-04-19T13:04:01;12.65;;;2.70;;
73456;SDS011;61691;53.072;6.582;2023-04-19T13:06:28;12.43;;;2.83;;
73456;SDS011;61691;53.072;6.582;2023-04-19T13:08:55;10.68;;;3.10;;
73456;SDS011;61691;53.072;6.582;2023-04-19T13:11:26;14.02;;;2.70;;
73456;SDS011;61691;53.072;6.582;2023-04-19T13:13:53;13.18;;;3.17;;
73456;SDS011;61691;53.072;6.582;2023-04-19T13:16:20;10.32;;;2.80;;
73456;SDS011;61691;53.072;6.582;2023-04-19T13:18:48;13.75;;;3.17;;
73456;SDS011;61691;53.072;6.582;2023-04-19T13:21:16;12.48;;;2.50;;
73456;SDS011;61691;53.072;6.582;2023-04-19T13:23:43;12.15;;;2.30;;
73456;SDS011;61691;53.072;6.582;2023-04-19T13:26:10;11.00;;;2.50;;
73456;SDS011;61691;53.072;6.582;2023-04-19T13:28:39;11.57;;;3.00;;
73456;SDS011;61691;53.072;6.582;2023-04-19T13:31:08;11.00;;;2.80;;
73456;SDS011;61691;53.072;6.582;2023-04-19T13:33:36;11.38;;;2.47;;
73456;SDS011;61691;53.072;6.582;2023-04-19T13:36:05;11.00;;;2.90;;
73456;SDS011;61691;53.072;6.582;2023-04-19T13:38:33;10.82;;;2.70;;
73456;SDS011;61691;53.072;6.582;2023-04-19T13:41:01;11.88;;;2.90;;
73456;SDS011;61691;53.072;6.582;2023-04-19T13:43:30;9.68;;;2.35;;
73456;SDS011;61691;53.072;6.582;2023-04-19T13:45:58;12.65;;;2.72;;
73456;SDS011;61691;53.072;6.582;2023-04-19T13:48:26;11.32;;;3.00;;
73456;SDS011;61691;53.072;6.582;2023-04-19T13:50:55;10.85;;;2.60;;
73456;SDS011;61691;53.072;6.582;2023-04-19T13:53:24;12.85;;;2.83;;
73456;SDS011;61691;53.072;6.582;2023-04-19T13:55:53;11.15;;;2.85;;
73456;SDS011;61691;53.072;6.582;2023-04-19T13:58:24;7.78;;;2.13;;
73456;SDS011;61691;53.072;6.582;2023-04-19T14:00:53;11.57;;;2.80;;
73456;SDS011;61691;53.072;6.582;2023-04-19T14:03:21;11.00;;;2.70;;
73456;SDS011;61691;53.072;6.582;2023-04-19T14:05:51;13.40;;;3.20;;
73456;SDS011;61691;53.072;6.582;2023-04-19T14:08:19;11.23;;;2.78;;
73456;SDS011;61691;53.072;6.582;2023-04-19T14:10:48;12.52;;;2.80;;
73456;SDS011;61691;53.072;6.582;2023-04-19T14:13:16;14.45;;;3.33;;
73456;SDS011;61691;53.072;6.582;2023-04-19T14:15:45;12.68;;;3.00;;
73456;SDS011;61691;53.072;6.582;2023-04-19T14:18:12;9.95;;;2.60;;
73456;SDS011;61691;53.072;6.582;2023-04-19T14:20:39;12.20;;;2.92;;
73456;SDS011;61691;53.072;6.582;2023-04-19T14:23:08;14.32;;;3.53;;
73456;SDS011;61691;53.072;6.582;2023-04-19T14:25:35;13.57;;;2.95;;
73456;SDS011;61691;53.072;6.582;2023-04-19T14:28:03;15.32;;;3.00;;
73456;SDS011;61691;53.072;6.582;2023-04-19T14:30:31;13.02;;;3.05;;
73456;SDS011;61691;53.072;6.582;2023-04-19T14:32:58;14.48;;;3.60;;
73456;SDS011;61691;53.072;6.582;2023-04-19T14:35:26;16.58;;;3.90;;
73456;SDS011;61691;53.072;6.582;2023-04-19T14:37:53;18.70;;;3.92;;
73456;SDS011;61691;53.072;6.582;2023-04-19T14:40:21;16.75;;;3.92;;
73456;SDS011;61691;53.072;6.582;2023-04-19T14:42:49;17.90;;;4.30;;
73456;SDS011;61691;53.072;6.582;2023-04-19T14:45:16;16.67;;;4.13;;
73456;SDS011;61691;53.072;6.582;2023-04-19T14:47:43;14.95;;;3.65;;
73456;SDS011;61691;53.072;6.582;2023-04-19T14:50:11;15.10;;;3.40;;
73456;SDS011;61691;53.072;6.582;2023-04-19T14:52:38;16.40;;;3.78;;
73456;SDS011;61691;53.072;6.582;2023-04-19T14:55:06;13.60;;;3.53;;
73456;SDS011;61691;53.072;6.582;2023-04-19T14:57:34;14.73;;;4.13;;
73456;SDS011;61691;53.072;6.582;2023-04-19T15:00:01;14.95;;;3.85;;
73456;SDS011;61691;53.072;6.582;2023-04-19T15:02:29;14.88;;;3.90;;
73456;SDS011;61691;53.072;6.582;2023-04-19T15:04:57;15.77;;;4.00;;
73456;SDS011;61691;53.072;6.582;2023-04-19T15:07:25;13.70;;;3.58;;
73456;SDS011;61691;53.072;6.582;2023-04-19T15:09:54;12.93;;;3.22;;